createdAt,value
2017-09-18T00:00:07.568Z,24.70
2017-09-18T00:02:35.491Z,24.70
2017-09-18T00:05:04.765Z,24.60
2017-09-18T00:07:32.737Z,24.60
2017-09-18T00:10:00.590Z,24.60
2017-09-18T00:12:28.495Z,24.60
2017-09-18T00:14:57.266Z,24.50
2017-09-18T00:17:25.203Z,24.50
2017-09-18T00:19:54.121Z,24.50
2017-09-18T00:22:22.269Z,24.50
2017-09-18T00:24:50.098Z,24.50
2017-09-18T00:27:19.570Z,24.50
2017-09-18T00:29:47.500Z,24.50
2017-09-18T00:32:16.200Z,24.50
2017-09-18T00:34:44.069Z,24.50
2017-09-18T00:37:12.721Z,24.40
2017-09-18T00:39:40.668Z,24.40
2017-09-18T00:42:08.609Z,24.40
2017-09-18T00:44:36.455Z,24.40
2017-09-18T00:47:05.685Z,24.40
2017-09-18T00:49:34.681Z,24.40
2017-09-18T00:52:03.839Z,24.40
2017-09-18T00:54:32.542Z,24.40
2017-09-18T00:57:00.436Z,24.40
2017-09-18T00:59:28.395Z,24.40
2017-09-18T02:47:30.216Z,23.90
2017-09-18T02:49:58.063Z,23.80
2017-09-18T02:52:25.903Z,23.80
2017-09-18T02:54:55.978Z,23.80
2017-09-18T02:57:25.578Z,23.80
2017-09-18T02:59:53.500Z,23.80
2017-09-18T03:02:21.543Z,23.80
2017-09-18T03:04:49.504Z,23.70
2017-09-18T03:07:17.594Z,23.70
2017-09-18T03:09:45.524Z,23.70
2017-09-18T03:12:13.437Z,23.70
2017-09-18T03:14:42.148Z,23.70
2017-09-18T03:17:10.028Z,23.50
2017-09-18T03:19:38.016Z,23.60
2017-09-18T03:22:05.919Z,23.60
2017-09-18T03:24:33.847Z,23.60
2017-09-18T03:27:01.819Z,23.60
2017-09-18T03:29:29.723Z,23.50
2017-09-18T03:31:58.974Z,23.50
2017-09-18T03:34:26.892Z,23.50
2017-09-18T03:36:55.586Z,23.50
2017-09-18T03:39:36.267Z,23.50
2017-09-18T03:42:04.192Z,23.50
2017-09-18T03:44:32.129Z,23.50
2017-09-18T03:47:00.009Z,23.50
2017-09-18T03:49:34.664Z,23.50
2017-09-18T03:52:02.722Z,23.50
2017-09-18T03:54:30.690Z,23.50
2017-09-18T03:56:58.578Z,23.50
2017-09-18T03:59:26.590Z,23.50
2017-09-18T04:01:59.509Z,23.50
2017-09-18T04:04:27.456Z,23.50
2017-09-18T04:06:55.367Z,23.50
2017-09-18T04:09:23.280Z,23.50
2017-09-18T04:11:51.107Z,23.50
2017-09-18T04:14:18.912Z,23.50
2017-09-18T04:16:46.761Z,23.50
2017-09-18T04:19:14.807Z,23.40
2017-09-18T04:21:42.685Z,23.40
2017-09-18T04:24:10.584Z,23.40
2017-09-18T04:26:38.552Z,23.40
2017-09-18T04:29:06.473Z,23.40
2017-09-18T04:31:34.436Z,23.40
2017-09-18T04:34:02.347Z,23.30
2017-09-18T04:36:30.152Z,23.30
2017-09-18T04:38:57.976Z,23.40
2017-09-18T04:41:25.887Z,23.40
2017-09-18T04:43:53.715Z,23.30
2017-09-18T04:46:21.601Z,23.30
2017-09-18T04:48:49.628Z,23.30
2017-09-18T04:51:18.366Z,23.20
2017-09-18T04:53:46.246Z,23.10
2017-09-18T04:56:14.154Z,23.20
2017-09-18T04:58:41.992Z,23.20
2017-09-18T05:01:09.829Z,23.20
2017-09-18T05:03:37.717Z,23.20
2017-09-18T05:06:05.540Z,23.30
2017-09-18T05:08:33.422Z,23.30
2017-09-18T05:11:01.236Z,23.20
2017-09-18T05:13:29.844Z,23.20
2017-09-18T05:15:59.052Z,23.20
2017-09-18T05:18:26.943Z,23.20
2017-09-18T05:20:54.765Z,23.20
2017-09-18T05:23:22.667Z,23.20
2017-09-18T05:25:50.501Z,23.20
2017-09-18T05:28:18.311Z,23.20
2017-09-18T05:30:46.155Z,23.20
2017-09-18T05:33:13.992Z,23.10
2017-09-18T05:36:01.351Z,23.10
2017-09-18T05:38:29.258Z,23.10
2017-09-18T05:40:57.098Z,23.10
2017-09-18T05:43:24.917Z,23.10
2017-09-18T05:45:52.778Z,23.10
2017-09-18T05:48:28.403Z,23.10
2017-09-18T05:50:56.327Z,23.10
2017-09-18T05:53:24.180Z,23.00
2017-09-18T05:55:51.997Z,23.00
2017-09-18T05:58:19.862Z,23.00
2017-09-18T06:00:56.660Z,23.00
2017-09-18T06:03:24.567Z,23.00
2017-09-18T06:05:53.666Z,23.00
2017-09-18T06:08:21.668Z,23.00
2017-09-18T06:10:49.681Z,23.00
2017-09-18T06:13:17.665Z,23.00
2017-09-18T06:15:45.645Z,23.00
2017-09-18T06:18:13.624Z,23.00
2017-09-18T06:20:41.684Z,23.10
2017-09-18T06:23:09.649Z,23.10
2017-09-18T06:25:37.613Z,23.20
2017-09-18T06:28:05.477Z,23.20
2017-09-18T06:30:34.009Z,23.20
2017-09-18T06:33:02.684Z,23.30
2017-09-18T06:35:30.531Z,23.20
2017-09-18T06:37:58.434Z,23.30
2017-09-18T06:40:34.258Z,23.30
2017-09-18T06:43:02.140Z,23.30
2017-09-18T06:45:30.075Z,23.30
2017-09-18T06:47:57.897Z,23.40
2017-09-18T06:50:25.839Z,23.40
2017-09-18T06:52:53.683Z,23.30
2017-09-18T06:55:21.595Z,23.40
2017-09-18T06:57:49.422Z,23.40
2017-09-18T07:00:17.275Z,23.40
2017-09-18T07:02:45.117Z,23.40
2017-09-18T07:05:12.956Z,23.40
2017-09-18T07:07:42.598Z,23.40
2017-09-18T07:10:11.323Z,23.40
2017-09-18T07:12:39.308Z,23.40
2017-09-18T07:15:08.282Z,23.50
2017-09-18T07:17:36.324Z,23.50
2017-09-18T07:20:04.833Z,23.50
2017-09-18T07:22:32.841Z,23.50
2017-09-18T07:25:00.884Z,23.50
2017-09-18T07:27:30.674Z,23.60
2017-09-18T07:29:58.529Z,23.60
2017-09-18T07:32:26.432Z,23.70
2017-09-18T07:34:56.336Z,23.70
2017-09-18T07:37:25.680Z,23.70
2017-09-18T07:39:54.949Z,23.80
2017-09-18T07:42:23.996Z,23.80
2017-09-18T07:44:52.535Z,23.90
2017-09-18T07:47:20.444Z,24.00
2017-09-18T07:49:48.299Z,24.00
2017-09-18T07:52:16.117Z,24.10
2017-09-18T07:54:43.951Z,24.10
2017-09-18T07:57:12.183Z,24.10
2017-09-18T07:59:40.066Z,24.20
2017-09-18T08:02:07.971Z,24.20
2017-09-18T08:04:35.885Z,24.20
2017-09-18T08:07:03.795Z,24.30
2017-09-18T08:09:31.597Z,24.30
2017-09-18T08:12:00.191Z,24.50
2017-09-18T08:14:28.918Z,24.50
2017-09-18T08:16:56.729Z,24.50
2017-09-18T08:19:25.474Z,24.60
2017-09-18T08:21:53.512Z,24.60
2017-09-18T08:24:21.500Z,24.60
2017-09-18T08:26:49.381Z,24.70
2017-09-18T08:29:17.184Z,24.70
2017-09-18T08:31:45.109Z,24.70
2017-09-18T08:34:13.015Z,24.70
2017-09-18T08:36:40.832Z,24.80
2017-09-18T08:39:22.798Z,24.90
2017-09-18T10:32:34.819Z,25.60
2017-09-18T10:35:02.668Z,25.30
2017-09-18T10:37:30.480Z,25.20
2017-09-18T10:39:58.392Z,25.30
2017-09-18T10:42:27.139Z,25.30
2017-09-18T10:44:55.671Z,25.30
2017-09-18T10:47:23.786Z,25.30
2017-09-18T10:49:51.659Z,25.30
2017-09-18T10:52:19.543Z,25.40
2017-09-18T10:54:47.356Z,25.50
2017-09-18T10:57:15.232Z,25.50
2017-09-18T10:59:43.072Z,25.60
2017-09-18T11:02:10.917Z,25.60
2017-09-18T11:04:39.958Z,25.40
2017-09-18T11:07:07.944Z,25.40
2017-09-18T11:09:35.801Z,25.40
2017-09-18T11:12:03.667Z,25.40
2017-09-18T11:14:31.525Z,25.40
2017-09-18T11:16:59.377Z,25.30
2017-09-18T11:19:27.275Z,25.30
2017-09-18T11:21:55.151Z,25.20
2017-09-18T11:24:23.191Z,25.10
2017-09-18T11:26:51.902Z,25.10
2017-09-18T11:29:19.721Z,25.10
2017-09-18T11:31:47.588Z,25.10
2017-09-18T11:34:15.411Z,25.00
2017-09-18T11:36:43.285Z,25.00
2017-09-18T11:39:11.208Z,25.00
2017-09-18T11:41:39.042Z,25.00
2017-09-18T11:44:07.666Z,24.90
2017-09-18T11:46:35.489Z,24.90
2017-09-18T11:49:04.086Z,24.80
2017-09-18T11:51:31.940Z,24.80
2017-09-18T11:54:00.537Z,24.70
2017-09-18T11:56:28.381Z,24.70
2017-09-18T11:58:57.072Z,24.70
2017-09-18T12:01:25.668Z,24.60
2017-09-18T12:03:53.548Z,24.60
2017-09-18T12:06:21.491Z,24.60
2017-09-18T12:08:50.189Z,24.50
2017-09-18T12:11:18.791Z,24.50
2017-09-18T12:13:46.665Z,24.50
2017-09-18T12:16:14.511Z,24.40
2017-09-18T12:18:42.381Z,24.50
2017-09-18T12:21:10.233Z,24.50
2017-09-18T12:23:40.655Z,24.50
2017-09-18T12:26:09.273Z,24.40
2017-09-18T12:28:38.133Z,24.40
2017-09-18T12:31:05.959Z,24.40
2017-09-18T12:33:33.861Z,24.40
2017-09-18T12:36:01.900Z,24.40
2017-09-18T12:38:29.805Z,24.40
2017-09-18T12:40:57.677Z,24.50
2017-09-18T12:43:25.476Z,24.40
2017-09-18T12:45:53.299Z,24.50
2017-09-18T12:48:22.041Z,24.50
2017-09-18T12:50:49.900Z,24.50
2017-09-18T12:53:17.769Z,24.60
2017-09-18T12:55:45.575Z,24.60
2017-09-18T12:58:14.265Z,24.70
2017-09-18T13:00:42.216Z,24.60
2017-09-18T13:03:10.844Z,24.70
2017-09-18T13:05:38.786Z,24.70
2017-09-18T13:08:07.529Z,24.60
2017-09-18T13:10:35.414Z,24.70
2017-09-18T13:13:03.307Z,24.60
2017-09-18T13:15:31.953Z,24.50
2017-09-18T13:17:59.779Z,24.50
2017-09-18T13:20:27.657Z,24.50
2017-09-18T13:22:55.517Z,24.50
2017-09-18T13:25:23.418Z,24.50
2017-09-18T13:27:51.328Z,24.40
2017-09-18T13:30:19.238Z,24.40
2017-09-18T13:32:47.147Z,24.40
2017-09-18T13:35:15.807Z,24.40
2017-09-18T13:37:43.639Z,24.40
2017-09-18T13:40:11.536Z,24.40
2017-09-18T13:42:39.414Z,24.30
2017-09-18T13:45:07.223Z,24.40
2017-09-18T13:47:35.068Z,24.40
2017-09-18T13:50:03.674Z,24.50
2017-09-18T13:52:31.507Z,24.50
2017-09-18T13:55:00.195Z,24.50
2017-09-18T13:57:28.796Z,24.60
2017-09-18T13:59:57.388Z,24.50
2017-09-18T14:02:25.229Z,24.60
2017-09-18T14:04:53.853Z,24.60
2017-09-18T14:07:21.710Z,24.60
2017-09-18T14:09:49.549Z,24.70
2017-09-18T14:12:18.187Z,24.70
2017-09-18T14:14:45.991Z,24.70
2017-09-18T14:17:13.956Z,24.70
2017-09-18T14:19:42.029Z,24.70
2017-09-18T14:22:09.872Z,24.70
2017-09-18T14:24:37.764Z,24.70
2017-09-18T14:27:06.483Z,24.70
2017-09-18T14:29:34.394Z,24.70
2017-09-18T14:32:02.242Z,24.70
2017-09-18T14:34:30.040Z,24.80
2017-09-18T14:36:57.855Z,24.80
2017-09-18T14:39:25.773Z,24.90
2017-09-18T14:41:53.663Z,24.90
2017-09-18T14:44:22.265Z,24.90
2017-09-18T14:46:50.171Z,24.90
2017-09-18T14:49:18.013Z,25.00
2017-09-18T14:51:45.860Z,25.10
2017-09-18T14:54:13.719Z,25.10
2017-09-18T14:56:41.584Z,25.00
2017-09-18T14:59:10.243Z,24.90
2017-09-18T15:01:38.103Z,24.90
2017-09-18T15:04:06.028Z,25.00
2017-09-18T15:06:34.359Z,24.90
2017-09-18T15:09:03.123Z,24.90
2017-09-18T15:11:30.959Z,24.90
2017-09-18T15:13:58.883Z,24.90
2017-09-18T15:16:27.547Z,24.90
2017-09-18T15:18:55.385Z,24.90
2017-09-18T15:21:23.229Z,25.00
2017-09-18T15:23:51.057Z,25.00
2017-09-18T15:26:19.672Z,24.90
2017-09-18T15:28:47.521Z,24.90
2017-09-18T15:31:16.099Z,24.90
2017-09-18T15:33:44.742Z,24.90
2017-09-18T15:36:12.561Z,24.90
2017-09-18T15:38:41.310Z,24.90
2017-09-18T15:41:09.159Z,24.90
2017-09-18T15:43:37.008Z,24.90
2017-09-18T15:46:04.889Z,24.90
2017-09-18T15:48:32.724Z,24.90
2017-09-18T15:51:00.671Z,24.90
2017-09-18T15:53:29.273Z,24.90
2017-09-18T15:55:57.099Z,24.90
2017-09-18T15:58:24.902Z,24.90
2017-09-18T16:00:52.728Z,24.90
2017-09-18T16:03:20.662Z,24.90
2017-09-18T16:05:48.543Z,24.90
2017-09-18T16:08:16.363Z,24.90
2017-09-18T16:10:44.981Z,24.90
2017-09-18T16:13:12.791Z,24.90
2017-09-18T16:15:41.392Z,24.90
2017-09-18T16:18:09.995Z,24.90
2017-09-18T16:20:37.892Z,24.90
2017-09-18T16:23:05.843Z,24.90
2017-09-18T16:25:33.796Z,24.90
2017-09-18T16:28:01.665Z,24.80
2017-09-18T16:30:29.480Z,24.90
2017-09-18T16:32:57.332Z,24.80
2017-09-18T16:35:25.214Z,24.80
2017-09-18T16:37:53.035Z,24.80
2017-09-18T16:40:20.971Z,24.70
2017-09-18T16:42:49.631Z,24.70
2017-09-18T16:45:17.481Z,24.70
2017-09-18T16:47:45.345Z,24.70
2017-09-18T16:50:13.197Z,24.70
2017-09-18T16:52:41.003Z,24.70
2017-09-18T16:55:08.916Z,24.60
2017-09-18T16:57:36.747Z,24.70
2017-09-18T17:00:05.368Z,24.60
2017-09-18T17:02:33.181Z,24.60
2017-09-18T17:05:01.036Z,24.60
2017-09-18T17:07:28.861Z,24.60
2017-09-18T17:09:56.752Z,24.60
2017-09-18T17:12:24.584Z,24.60
2017-09-18T17:14:52.464Z,24.60
2017-09-18T17:17:20.302Z,24.50
2017-09-18T17:19:48.984Z,24.50
2017-09-18T17:22:16.884Z,24.40
2017-09-18T17:24:44.748Z,24.50
2017-09-18T17:27:12.706Z,24.50
2017-09-18T17:29:41.293Z,24.50
2017-09-18T17:32:09.925Z,24.50
2017-09-18T17:34:37.757Z,24.50
2017-09-18T17:37:05.615Z,24.40
2017-09-18T17:39:33.500Z,24.40
2017-09-18T17:42:01.352Z,24.40
2017-09-18T17:44:29.245Z,24.50
2017-09-18T17:46:57.050Z,24.50
2017-09-18T17:49:25.811Z,24.40
2017-09-18T17:51:53.619Z,24.40
2017-09-18T17:54:21.445Z,24.40
2017-09-18T17:56:49.269Z,24.40
2017-09-18T17:59:17.826Z,24.50
2017-09-18T18:01:46.472Z,24.50
2017-09-18T18:04:14.252Z,24.50
2017-09-18T18:06:42.371Z,24.50
2017-09-18T18:09:10.289Z,24.50
2017-09-18T18:11:38.422Z,24.50
2017-09-18T18:14:07.052Z,24.50
2017-09-18T18:16:34.840Z,24.50
2017-09-18T18:19:02.755Z,24.40
2017-09-18T18:21:31.451Z,24.40
2017-09-18T18:23:59.275Z,24.50
2017-09-18T18:26:27.128Z,24.50
2017-09-18T18:28:54.956Z,24.50
2017-09-18T18:31:22.834Z,24.40
2017-09-18T18:33:51.383Z,24.50
2017-09-18T18:36:19.388Z,24.40
2017-09-18T18:38:48.005Z,24.40
2017-09-18T18:41:15.797Z,24.40
2017-09-18T18:43:43.670Z,24.40
2017-09-18T18:46:11.518Z,24.40
2017-09-18T18:48:39.380Z,24.50
2017-09-18T18:51:07.210Z,24.50
2017-09-18T18:53:35.755Z,24.50
2017-09-18T18:56:03.576Z,24.40
2017-09-18T18:58:31.466Z,24.50
2017-09-18T19:00:59.241Z,24.50
2017-09-18T19:03:27.068Z,24.50
2017-09-18T19:05:55.960Z,24.50
2017-09-18T19:08:23.924Z,24.40
2017-09-18T19:10:51.732Z,24.40
2017-09-18T19:13:19.556Z,24.50
2017-09-18T19:15:47.384Z,24.50
2017-09-18T19:18:15.212Z,24.50
2017-09-18T19:20:43.079Z,24.50
2017-09-18T19:23:10.984Z,24.50
2017-09-18T19:25:38.856Z,24.50
2017-09-18T19:28:06.652Z,24.50
2017-09-18T19:30:34.444Z,24.50
2017-09-18T19:33:02.263Z,24.50
2017-09-18T19:35:30.856Z,24.50
2017-09-18T19:37:59.401Z,24.40
2017-09-18T19:40:27.187Z,24.40
2017-09-18T19:42:55.307Z,24.40
2017-09-18T19:45:23.124Z,24.40
2017-09-18T19:47:51.713Z,24.50
2017-09-18T19:50:20.312Z,24.50
2017-09-18T19:52:48.871Z,24.50
2017-09-18T19:55:16.711Z,24.50
2017-09-18T19:58:07.375Z,24.50
2017-09-18T20:00:36.237Z,24.50
2017-09-18T20:03:04.827Z,24.50
2017-09-18T20:05:33.474Z,24.50
2017-09-18T20:08:01.284Z,24.40
2017-09-18T20:10:29.908Z,24.50
2017-09-18T20:12:58.719Z,24.50
2017-09-18T20:15:26.531Z,24.50
2017-09-18T20:17:54.396Z,24.50
2017-09-18T20:20:22.267Z,24.50
2017-09-18T20:22:50.090Z,24.50
2017-09-18T20:25:17.951Z,24.50
2017-09-18T20:27:45.769Z,24.40
2017-09-18T20:30:13.780Z,24.50
2017-09-18T20:32:41.627Z,24.40
2017-09-18T20:35:09.482Z,24.40
2017-09-18T20:37:37.346Z,24.40
2017-09-18T20:40:05.232Z,24.50
2017-09-18T20:42:33.133Z,24.40
2017-09-18T20:45:01.689Z,24.50
2017-09-18T20:47:29.637Z,24.40
2017-09-18T20:49:57.424Z,24.40
2017-09-18T20:52:25.288Z,24.40
2017-09-18T20:54:53.073Z,24.50
2017-09-18T20:57:20.865Z,24.40
2017-09-18T20:59:48.660Z,24.40
2017-09-18T21:02:16.468Z,24.40
2017-09-18T21:04:44.263Z,24.30
2017-09-18T21:07:12.831Z,24.40
2017-09-18T21:09:41.411Z,24.40
2017-09-18T21:12:10.000Z,24.40
2017-09-18T21:14:38.561Z,24.40
2017-09-18T21:17:06.371Z,24.40
2017-09-18T21:19:34.246Z,24.40
2017-09-18T21:22:02.016Z,24.40
2017-09-18T21:24:29.903Z,24.40
2017-09-18T21:26:57.720Z,24.40
2017-09-18T21:29:25.496Z,24.40
2017-09-18T21:31:53.308Z,24.30
2017-09-18T21:34:21.159Z,24.30
2017-09-18T21:36:49.147Z,24.40
2017-09-18T21:39:17.004Z,24.30
2017-09-18T21:41:44.869Z,24.30
2017-09-18T21:44:12.667Z,24.30
2017-09-18T21:46:41.275Z,24.30
2017-09-18T21:49:09.131Z,24.30
2017-09-18T21:51:37.047Z,24.30
2017-09-18T21:54:04.910Z,24.30
2017-09-18T21:56:32.736Z,24.30
2017-09-18T21:59:00.528Z,24.30
2017-09-18T22:01:28.309Z,24.30
2017-09-18T22:03:56.105Z,24.30
2017-09-18T22:06:24.676Z,24.50
2017-09-18T22:08:52.463Z,24.50
2017-09-18T22:11:21.036Z,24.70
2017-09-18T22:13:49.644Z,24.80
2017-09-18T22:16:17.442Z,24.90
2017-09-18T22:18:45.307Z,24.90
2017-09-18T22:21:13.087Z,25.00
2017-09-18T22:23:40.900Z,25.10
2017-09-18T22:26:08.667Z,25.10
2017-09-18T22:28:36.472Z,25.20
2017-09-18T22:31:04.251Z,25.20
2017-09-18T22:33:32.063Z,25.10
2017-09-18T22:35:59.852Z,24.90
2017-09-18T22:38:27.758Z,24.90
2017-09-18T22:40:55.544Z,24.80
2017-09-18T22:43:24.096Z,24.70
2017-09-18T22:45:51.956Z,24.70
2017-09-18T22:48:19.789Z,24.70
2017-09-18T22:50:47.580Z,24.70
2017-09-18T22:53:15.377Z,24.70
2017-09-18T22:55:43.935Z,24.70
2017-09-18T22:58:11.748Z,24.70
2017-09-18T23:00:39.727Z,24.70
2017-09-18T23:03:07.553Z,24.70
2017-09-18T23:05:35.343Z,24.60
2017-09-18T23:08:03.125Z,24.60
2017-09-18T23:10:30.960Z,24.60
2017-09-18T23:12:59.597Z,24.70
2017-09-18T23:15:27.401Z,24.70
2017-09-18T23:17:56.015Z,24.70
2017-09-18T23:20:23.820Z,24.70
2017-09-18T23:22:51.733Z,24.80
2017-09-18T23:25:20.325Z,24.90
2017-09-18T23:27:48.140Z,24.90
2017-09-18T23:30:15.943Z,24.90
2017-09-18T23:32:44.497Z,24.90
2017-09-18T23:35:12.311Z,24.90
2017-09-18T23:37:40.091Z,25.00
2017-09-18T23:40:07.970Z,24.90
2017-09-18T23:42:35.860Z,24.90
2017-09-18T23:45:03.837Z,24.80
2017-09-18T23:47:31.620Z,24.80
2017-09-18T23:50:00.168Z,24.80
2017-09-18T23:52:28.018Z,24.70
2017-09-18T23:54:55.788Z,24.80
2017-09-18T23:57:23.641Z,24.80
2017-09-18T23:59:51.428Z,24.90
